Time;durP1;ratioP1;P1;durP2;ratioP2;P2;SDS_P1;SDS_P2;PMS_P1;PMS_P2;Temp;Humidity;BMP_temperature;BMP_pressure;BME280_temperature;BME280_humidity;BME280_pressure;Samples;Min_cycle;Max_cycle;Signal;HPM_P1;HPM_P2
2024/04/25 00:04:49;;;;;;;;;;;;;;;17.50;43.04;98736.41;11177593;26;1868;-69
2024/04/25 00:09:45;;;;;;;;;;;;;;;17.49;42.56;98729.44;11177553;26;867;-69
2024/04/25 00:14:41;;;;;;;;;;;;;;;17.49;42.77;98737.34;11177204;26;926;-68
2024/04/25 00:19:37;;;;;;;;;;;;;;;17.49;42.58;98729.44;11175837;26;847;-68
2024/04/25 00:24:33;;;;;;;;;;;;;;;17.47;42.47;98720.78;11176998;26;1826;-68
2024/04/25 00:29:29;;;;;;;;;;;;;;;17.46;42.68;98719.94;11176385;26;875;-69
2024/04/25 00:34:24;;;;;;;;;;;;;;;17.46;42.75;98724.38;11176833;26;902;-69
2024/04/25 00:39:20;;;;;;;;;;;;;;;17.45;43.16;98720.91;11175961;26;861;-69
2024/04/25 00:44:16;;;;;;;;;;;;;;;17.43;42.69;98720.13;11176409;26;1853;-69
2024/04/25 00:49:12;;;;;;;;;;;;;;;17.43;42.49;98714.00;11175627;26;946;-68
2024/04/25 00:54:08;;;;;;;;;;;;;;;17.43;42.91;98711.38;11175580;26;931;-69
2024/04/25 00:59:04;;;;;;;;;;;;;;;17.44;43.00;98705.16;11175351;26;1121;-68
2024/04/25 01:04:00;;;;;;;;;;;;;;;17.42;42.85;98713.16;11176773;26;1841;-69
2024/04/25 01:08:56;;;;;;;;;;;;;;;17.41;43.04;98707.97;11175910;26;840;-69
2024/04/25 01:13:52;;;;;;;;;;;;;;;17.41;42.50;98711.47;11176347;26;898;-68
2024/04/25 01:18:48;;;;;;;;;;;;;;;17.42;42.78;98709.66;11175404;26;1049;-69
2024/04/25 01:23:44;;;;;;;;;;;;;;;17.40;42.50;98701.03;11175354;26;788;-69
2024/04/25 01:28:40;;;;;;;;;;;;;;;17.40;43.14;98698.41;11175057;26;1911;-69
2024/04/25 01:33:35;;;;;;;;;;;;;;;17.39;43.11;98699.31;11173357;26;969;-69
2024/04/25 01:38:31;;;;;;;;;;;;;;;17.39;42.57;98694.88;11175553;26;884;-69
2024/04/25 01:43:27;;;;;;;;;;;;;;;17.39;43.16;98686.13;11175397;26;849;-68
2024/04/25 01:48:23;;;;;;;;;;;;;;;17.37;42.74;98682.75;11174555;26;1830;-68
2024/04/25 01:53:19;;;;;;;;;;;;;;;17.36;42.81;98683.69;11175024;26;1048;-68
2024/04/25 01:58:15;;;;;;;;;;;;;;;17.36;42.93;98679.25;11174740;26;908;-69
2024/04/25 02:03:11;;;;;;;;;;;;;;;17.37;43.16;98680.09;11173942;26;1215;-69
2024/04/25 02:08:07;;;;;;;;;;;;;;;17.36;42.96;98683.69;11173794;26;1837;-68
2024/04/25 02:13:02;;;;;;;;;;;;;;;17.34;43.02;98683.75;11173811;26;906;-69
2024/04/25 02:17:58;;;;;;;;;;;;;;;17.33;43.16;98684.72;11173527;26;870;-69
2024/04/25 02:28:09;;;;;;;;;;;;;;;17.31;42.66;98690.06;11173483;26;1825;-69
2024/04/25 02:33:05;;;;;;;;;;;;;;;17.31;43.01;98684.78;11173623;26;860;-69
2024/04/25 02:38:01;;;;;;;;;;;;;;;17.30;43.15;98685.75;11173506;26;906;-69
2024/04/25 02:42:57;;;;;;;;;;;;;;;17.30;43.12;98677.00;11175054;26;938;-69
2024/04/25 02:47:52;;;;;;;;;;;;;;;17.29;43.15;98673.53;11179618;26;1851;-68
2024/04/25 02:52:48;;;;;;;;;;;;;;;17.29;43.15;98683.19;11180583;26;860;-69
2024/04/25 02:57:44;;;;;;;;;;;;;;;17.29;42.84;98673.53;11180323;26;852;-69
2024/04/25 03:02:40;;;;;;;;;;;;;;;17.27;42.47;98675.41;11178906;26;1258;-69
2024/04/25 03:07:36;;;;;;;;;;;;;;;17.27;42.47;98677.19;11178654;26;1861;-69
2024/04/25 03:12:32;;;;;;;;;;;;;;;17.25;42.87;98681.69;11179559;26;938;-69
2024/04/25 03:17:28;;;;;;;;;;;;;;;17.25;43.17;98677.25;11178251;26;900;-68
2024/04/25 03:22:24;;;;;;;;;;;;;;;17.26;42.95;98675.47;11178270;26;939;-68
2024/04/25 03:27:20;;;;;;;;;;;;;;;17.23;42.56;98671.22;11178119;26;1826;-69
2024/04/25 03:32:15;;;;;;;;;;;;;;;17.23;43.18;98673.88;11178680;26;865;-69
2024/04/25 03:37:11;;;;;;;;;;;;;;;17.22;42.57;98668.69;11178533;26;839;-69
2024/04/25 03:42:07;;;;;;;;;;;;;;;17.23;43.08;98673.03;11178330;26;882;-69
2024/04/25 03:47:03;;;;;;;;;;;;;;;17.25;43.09;98676.41;11177488;26;1829;-69
2024/04/25 03:51:59;;;;;;;;;;;;;;;17.26;42.55;98680.72;11177321;26;1032;-68
2024/04/25 03:56:58;;;;;;;;;;;;;;;17.27;43.13;98683.28;11176724;26;985;-69
2024/04/25 04:01:57;;;;;;;;;;;;;;;17.28;43.11;98679.72;11177813;26;1105;-69
2024/04/25 04:06:54;;;;;;;;;;;;;;;17.30;42.53;98679.63;11177413;26;2038;-68
2024/04/25 04:11:50;;;;;;;;;;;;;;;17.31;42.63;98684.78;11176915;26;897;-68
2024/04/25 04:16:46;;;;;;;;;;;;;;;17.33;42.64;98681.25;11176724;26;902;-69
2024/04/25 04:21:42;;;;;;;;;;;;;;;17.34;42.89;98688.19;11176657;26;811;-69
2024/04/25 04:26:38;;;;;;;;;;;;;;;17.35;42.56;98688.13;11177053;26;1860;-68
2024/04/25 04:31:33;;;;;;;;;;;;;;;17.36;42.54;98686.31;11176296;26;859;-69
2024/04/25 04:36:33;;;;;;;;;;;;;;;17.37;42.84;98696.78;11176131;26;908;-69
2024/04/25 04:41:29;;;;;;;;;;;;;;;17.38;43.16;98697.63;11176573;26;926;-69
2024/04/25 04:46:25;;;;;;;;;;;;;;;17.38;42.75;98687.94;11175633;26;1825;-69
2024/04/25 04:51:21;;;;;;;;;;;;;;;17.40;42.77;98693.13;11176336;26;937;-69
2024/04/25 04:56:17;;;;;;;;;;;;;;;17.40;42.91;98688.69;11175496;26;847;-69
2024/04/25 05:01:13;;;;;;;;;;;;;;;17.41;42.56;98685.13;11175125;26;1578;-69
2024/04/25 05:06:09;;;;;;;;;;;;;;;17.43;43.04;98692.94;11175502;26;1836;-69
2024/04/25 05:11:05;;;;;;;;;;;;;;;17.43;43.17;98685.88;11175156;26;863;-69
2024/04/25 05:16:01;;;;;;;;;;;;;;;17.43;42.56;98695.56;11175654;26;725;-69
2024/04/25 05:20:57;;;;;;;;;;;;;;;17.44;43.19;98692.84;11174744;26;876;-71
2024/04/25 05:25:52;;;;;;;;;;;;;;;17.45;43.25;98701.59;11174409;26;1828;-68
2024/04/25 05:30:48;;;;;;;;;;;;;;;17.45;42.61;98701.59;11174460;26;1042;-69
2024/04/25 05:35:47;;;;;;;;;;;;;;;17.47;42.62;98704.97;11174370;26;871;-69
2024/04/25 05:40:43;;;;;;;;;;;;;;;17.48;42.57;98704.91;11174938;26;837;-69
2024/04/25 05:45:39;;;;;;;;;;;;;;;17.49;42.93;98708.38;11174694;26;1871;-69
2024/04/25 05:50:37;;;;;;;;;;;;;;;17.50;42.76;98710.06;11173824;26;845;-69
2024/04/25 05:55:34;;;;;;;;;;;;;;;17.50;42.97;98704.78;11173793;26;818;-69
2024/04/25 06:00:30;;;;;;;;;;;;;;;17.51;42.92;98706.50;11173241;26;1350;-68
2024/04/25 06:05:26;;;;;;;;;;;;;;;17.52;42.85;98692.38;11173968;26;1837;-69
2024/04/25 06:10:22;;;;;;;;;;;;;;;17.54;42.91;98695.78;11173250;26;903;-69
2024/04/25 06:15:17;;;;;;;;;;;;;;;17.54;43.21;98701.06;11172894;26;965;-73
2024/04/25 06:20:16;;;;;;;;;;;;;;;17.54;43.01;98701.06;11172559;26;974;-69
2024/04/25 06:25:12;;;;;;;;;;;;;;;17.55;42.66;98701.91;11172709;26;1837;-69
2024/04/25 06:30:08;;;;;;;;;;;;;;;17.57;43.40;98697.38;11172517;26;813;-69
2024/04/25 06:35:03;;;;;;;;;;;;;;;17.57;42.93;98698.22;11172981;26;798;-69
2024/04/25 06:39:59;;;;;;;;;;;;;;;17.58;43.25;98699.06;11172120;26;851;-68
2024/04/25 06:44:55;;;;;;;;;;;;;;;17.57;43.27;98700.88;11172456;26;1817;-69
2024/04/25 06:49:51;;;;;;;;;;;;;;;17.58;43.09;98691.16;11172390;26;1030;-69
2024/04/25 06:54:47;;;;;;;;;;;;;;;17.56;43.13;98699.19;11172349;26;810;-70
2024/04/25 06:59:43;;;;;;;;;;;;;;;17.54;43.11;98703.69;11171899;26;1129;-69
2024/04/25 07:04:39;;;;;;;;;;;;;;;17.52;43.26;98703.75;11172416;26;1832;-67
2024/04/25 07:09:36;;;;;;;;;;;;;;;17.52;43.12;98697.66;11171708;26;938;-69
2024/04/25 07:14:32;;;;;;;;;;;;;;;17.51;42.74;98691.53;11172296;26;798;-69
2024/04/25 07:19:28;;;;;;;;;;;;;;;17.51;43.10;98699.44;11172050;26;899;-68
2024/04/25 07:24:24;;;;;;;;;;;;;;;17.51;43.13;98688.06;11171000;26;1852;-68
2024/04/25 07:29:20;;;;;;;;;;;;;;;17.51;43.28;98696.81;11172567;26;804;-68
2024/04/25 07:34:16;;;;;;;;;;;;;;;17.53;43.33;98686.19;11178590;26;866;-68
2024/04/25 07:39:12;;;;;;;;;;;;;;;17.53;43.19;98692.31;11178519;26;1013;-68
2024/04/25 07:44:08;;;;;;;;;;;;;;;17.56;42.75;98695.72;11179032;26;1851;-68
2024/04/25 07:49:05;;;;;;;;;;;;;;;17.56;42.70;98691.28;11178242;26;945;-68
2024/04/25 07:54:01;;;;;;;;;;;;;;;17.54;42.76;98690.50;11178101;26;908;-68
2024/04/25 07:58:57;;;;;;;;;;;;;;;17.54;43.33;98693.16;11178018;26;1220;-68
2024/04/25 08:03:53;;;;;;;;;;;;;;;17.56;42.65;98693.91;11177826;26;929;-68
2024/04/25 08:08:49;;;;;;;;;;;;;;;17.57;42.65;98690.31;11177637;26;1844;-68
2024/04/25 08:13:46;;;;;;;;;;;;;;;17.59;42.90;98699.00;11176783;26;926;-68
2024/04/25 08:18:43;;;;;;;;;;;;;;;17.62;42.79;98698.81;11176777;26;896;-68
2024/04/25 08:23:39;;;;;;;;;;;;;;;17.62;42.69;98695.34;11176586;26;876;-68
2024/04/25 08:28:34;;;;;;;;;;;;;;;17.64;42.63;98698.72;11176299;26;1821;-68
2024/04/25 08:33:30;;;;;;;;;;;;;;;17.65;42.95;98693.34;11176998;26;817;-68
2024/04/25 08:38:29;;;;;;;;;;;;;;;17.65;42.65;98692.50;11176174;26;807;-69
2024/04/25 08:43:25;;;;;;;;;;;;;;;17.65;42.63;98697.78;11175057;26;826;-69
2024/04/25 08:48:21;;;;;;;;;;;;;;;17.65;42.84;98696.00;11176399;26;1832;-69
2024/04/25 08:53:17;;;;;;;;;;;;;;;17.67;43.04;98688.00;11176328;26;961;-71
2024/04/25 08:58:12;;;;;;;;;;;;;;;17.68;42.43;98690.56;11176111;26;841;-69
2024/04/25 09:03:09;;;;;;;;;;;;;;;17.69;42.48;98684.34;11176345;26;1191;-70
2024/04/25 09:08:05;;;;;;;;;;;;;;;17.70;42.82;98680.75;11175887;26;1841;-70
2024/04/25 09:13:01;;;;;;;;;;;;;;;17.71;42.52;98682.47;11175763;26;899;-68
2024/04/25 09:17:57;;;;;;;;;;;;;;;17.72;42.67;98680.66;11175626;26;873;-72
2024/04/25 09:22:53;;;;;;;;;;;;;;;17.70;42.88;98672.84;11175558;26;877;-70
2024/04/25 09:27:49;;;;;;;;;;;;;;;17.70;43.02;98672.84;11175931;26;1829;-70
2024/04/25 09:32:45;;;;;;;;;;;;;;;17.71;42.70;98669.28;11175149;26;863;-70
2024/04/25 09:37:41;;;;;;;;;;;;;;;17.73;42.66;98662.13;11175091;26;1017;-70
2024/04/25 09:42:36;;;;;;;;;;;;;;;17.73;43.16;98659.47;11175588;26;752;-69
2024/04/25 09:47:32;;;;;;;;;;;;;;;17.73;42.73;98659.47;11174613;26;1821;-70
2024/04/25 09:52:28;;;;;;;;;;;;;;;17.76;42.75;98650.53;11173157;26;902;-70
2024/04/25 09:57:24;;;;;;;;;;;;;;;17.77;42.54;98643.50;11174968;26;894;-70
2024/04/25 10:02:20;;;;;;;;;;;;;;;17.73;43.22;98654.22;11173558;26;1042;-73
2024/04/25 10:07:16;;;;;;;;;;;;;;;17.74;42.61;98645.38;11173919;26;1862;-70
2024/04/25 10:12:12;;;;;;;;;;;;;;;17.75;43.05;98648.84;11173279;26;904;-70
2024/04/25 10:17:08;;;;;;;;;;;;;;;17.78;42.93;98647.81;11173740;26;811;-70
2024/04/25 10:22:04;;;;;;;;;;;;;;;17.82;42.90;98641.47;11172883;26;890;-69
2024/04/25 10:26:59;;;;;;;;;;;;;;;17.82;43.13;98628.28;11173244;26;1817;-70
2024/04/25 10:31:55;;;;;;;;;;;;;;;17.82;43.25;98615.94;11173215;26;790;-69
2024/04/25 10:36:51;;;;;;;;;;;;;;;17.86;43.31;98616.59;11172318;26;878;-69
2024/04/25 10:41:47;;;;;;;;;;;;;;;17.87;43.23;98623.59;11172232;26;802;-69
2024/04/25 10:46:43;;;;;;;;;;;;;;;17.85;43.21;98607.84;11171892;26;1846;-69
2024/04/25 10:51:39;;;;;;;;;;;;;;;17.92;42.99;98610.94;11171814;26;855;-70
2024/04/25 10:56:37;;;;;;;;;;;;;;;17.91;43.11;98606.63;11171623;26;941;-70
2024/04/25 11:01:33;;;;;;;;;;;;;;;17.91;43.04;98601.34;11171218;26;1115;-69
2024/04/25 11:06:29;;;;;;;;;;;;;;;17.92;43.07;98595.13;11176903;26;1858;-72
2024/04/25 11:11:24;;;;;;;;;;;;;;;17.93;42.78;98592.41;11179337;26;829;-69
2024/04/25 11:16:20;;;;;;;;;;;;;;;17.92;42.98;98601.28;11179263;26;804;-70
2024/04/25 11:21:16;;;;;;;;;;;;;;;17.94;42.44;98595.88;11179108;26;840;-70
2024/04/25 11:26:12;;;;;;;;;;;;;;;17.97;43.37;98585.13;11178161;26;1817;-69
2024/04/25 11:31:08;;;;;;;;;;;;;;;17.93;42.93;98588.94;11178875;26;831;-69
2024/04/25 11:36:05;;;;;;;;;;;;;;;17.90;42.92;98589.13;11178053;26;974;-69
2024/04/25 11:41:01;;;;;;;;;;;;;;;17.90;43.14;98599.66;11177935;26;1395;-69
2024/04/25 11:45:57;;;;;;;;;;;;;;;17.93;42.71;98599.47;11178353;26;1832;-75
2024/04/25 11:50:53;;;;;;;;;;;;;;;17.94;43.40;98603.78;11177586;26;970;-73
2024/04/25 11:55:48;;;;;;;;;;;;;;;17.95;43.30;98597.59;11177343;26;836;-70
2024/04/25 12:00:47;;;;;;;;;;;;;;;17.96;43.33;98601.91;11177609;26;1059;-69
2024/04/25 12:05:43;;;;;;;;;;;;;;;17.96;43.36;98599.28;11177756;26;1832;-69
2024/04/25 12:10:40;;;;;;;;;;;;;;;17.96;42.95;98599.28;11177705;26;995;-69
2024/04/25 12:15:36;;;;;;;;;;;;;;;17.95;43.12;98598.44;11177083;26;918;-69
2024/04/25 12:20:31;;;;;;;;;;;;;;;17.94;42.92;98595.88;11177327;26;900;-69
2024/04/25 12:25:30;;;;;;;;;;;;;;;17.93;43.31;98587.13;11177211;26;1867;-69
2024/04/25 12:30:26;;;;;;;;;;;;;;;17.93;42.74;98592.41;11177720;26;1009;-69
2024/04/25 12:35:22;;;;;;;;;;;;;;;17.94;43.33;98590.59;11177613;26;862;-68
2024/04/25 12:40:18;;;;;;;;;;;;;;;17.93;43.06;98602.09;11177651;26;867;-68
2024/04/25 12:45:14;;;;;;;;;;;;;;;17.91;43.04;98591.66;11176435;26;1829;-68
2024/04/25 12:50:10;;;;;;;;;;;;;;;17.92;42.94;98589.84;11176587;26;957;-68
2024/04/25 12:55:05;;;;;;;;;;;;;;;17.90;43.10;98592.59;11175653;26;807;-69
2024/04/25 13:00:01;;;;;;;;;;;;;;;17.88;43.23;98589.22;11175650;26;1107;-68
2024/04/25 13:04:57;;;;;;;;;;;;;;;17.88;43.22;98585.72;11175940;26;1836;-67
2024/04/25 13:09:53;;;;;;;;;;;;;;;17.88;43.23;98588.38;11175299;26;864;-67
2024/04/25 13:14:49;;;;;;;;;;;;;;;17.87;42.79;98586.69;11175228;26;897;-68
2024/04/25 13:19:45;;;;;;;;;;;;;;;17.88;42.57;98583.94;11175769;26;888;-68
2024/04/25 13:24:41;;;;;;;;;;;;;;;17.89;42.82;98574.22;11175503;26;1852;-69
2024/04/25 13:29:37;;;;;;;;;;;;;;;17.90;42.60;98576.78;11174796;26;818;-68
2024/04/25 13:34:33;;;;;;;;;;;;;;;17.93;42.62;98573.09;11175378;26;822;-68
2024/04/25 13:39:28;;;;;;;;;;;;;;;17.91;43.18;98570.56;11174583;26;915;-67
2024/04/25 13:44:24;;;;;;;;;;;;;;;17.89;43.21;98561.03;11175491;26;1825;-67
2024/04/25 13:49:23;;;;;;;;;;;;;;;17.88;42.96;98556.72;11174041;26;1050;-68
2024/04/25 13:54:20;;;;;;;;;;;;;;;17.86;43.14;98556.81;11174010;26;863;-68
2024/04/25 13:59:20;;;;;;;;;;;;;;;17.85;43.23;98551.66;11173698;26;1165;-67
2024/04/25 14:04:16;;;;;;;;;;;;;;;17.82;43.22;98542.16;11173729;26;1952;-68
2024/04/25 14:09:12;;;;;;;;;;;;;;;17.82;43.01;98536.88;11173584;26;855;-68
2024/04/25 14:14:09;;;;;;;;;;;;;;;17.81;42.59;98536.97;11173461;26;836;-68
2024/04/25 14:19:05;;;;;;;;;;;;;;;17.81;42.55;98537.81;11172660;26;934;-71
2024/04/25 14:24:01;;;;;;;;;;;;;;;17.82;42.42;98533.41;11172920;26;966;-69
2024/04/25 14:28:57;;;;;;;;;;;;;;;17.82;42.58;98536.88;11172672;26;1833;-69
2024/04/25 14:33:53;;;;;;;;;;;;;;;17.84;42.79;98521.81;11172480;26;872;-69
2024/04/25 14:38:49;;;;;;;;;;;;;;;17.90;42.28;98518.78;11173903;26;921;-69
2024/04/25 14:43:45;;;;;;;;;;;;;;;17.95;42.56;98513.22;11179495;26;873;-69
2024/04/25 14:48:41;;;;;;;;;;;;;;;17.98;42.65;98501.66;11179315;26;1821;-68
2024/04/25 14:53:36;;;;;;;;;;;;;;;17.97;42.46;98508.69;11179978;26;812;-68
2024/04/25 14:58:32;;;;;;;;;;;;;;;17.97;42.63;98503.41;11179719;26;879;-69
2024/04/25 15:03:28;;;;;;;;;;;;;;;18.01;42.69;98506.72;11179319;26;1101;-68
2024/04/25 15:08:24;;;;;;;;;;;;;;;17.99;42.31;98495.41;11178882;26;1851;-68
2024/04/25 15:13:20;;;;;;;;;;;;;;;17.98;42.53;98499.00;11179617;26;959;-68
2024/04/25 15:18:17;;;;;;;;;;;;;;;18.01;42.50;98491.75;11178755;26;860;-69
2024/04/25 15:23:13;;;;;;;;;;;;;;;18.05;42.70;98490.59;11179283;26;930;-71
2024/04/25 15:28:09;;;;;;;;;;;;;;;18.06;42.89;98487.00;11178956;26;1854;-69
2024/04/25 15:33:05;;;;;;;;;;;;;;;18.04;42.27;98488.91;11178396;26;900;-69
2024/04/25 15:38:02;;;;;;;;;;;;;;;18.03;42.47;98483.75;11178900;26;902;-69
2024/04/25 15:42:57;;;;;;;;;;;;;;;18.02;42.80;98482.03;11178674;26;894;-69
2024/04/25 15:47:54;;;;;;;;;;;;;;;18.00;42.66;98489.19;11177776;26;1817;-73
2024/04/25 15:52:49;;;;;;;;;;;;;;;17.98;42.66;98493.72;11176327;26;994;-74
2024/04/25 15:57:45;;;;;;;;;;;;;;;17.98;41.94;98481.41;11177514;26;914;-72
2024/04/25 16:02:41;;;;;;;;;;;;;;;17.97;42.40;98477.03;11176622;26;1111;-72
2024/04/25 16:07:37;;;;;;;;;;;;;;;17.97;41.77;98471.78;11177307;26;1840;-72
2024/04/25 16:12:33;;;;;;;;;;;;;;;17.99;42.63;98476.97;11176365;26;859;-72
2024/04/25 16:17:29;;;;;;;;;;;;;;;17.99;42.15;98469.06;11176371;26;967;-78
2024/04/25 16:22:25;;;;;;;;;;;;;;;17.99;42.37;98472.53;11176822;26;970;-71
2024/04/25 16:27:22;;;;;;;;;;;;;;;17.99;41.76;98472.53;11176611;26;1828;-70
2024/04/25 16:32:18;;;;;;;;;;;;;;;18.00;42.06;98471.59;11176583;26;997;-71
2024/04/25 16:37:14;;;;;;;;;;;;;;;18.00;42.20;98471.59;11175756;26;934;-71
2024/04/25 16:42:10;;;;;;;;;;;;;;;18.00;42.24;98463.69;11175558;26;873;-72
2024/04/25 16:47:06;;;;;;;;;;;;;;;18.00;42.05;98463.69;11176088;26;1821;-71
2024/04/25 16:52:02;;;;;;;;;;;;;;;18.00;42.38;98455.78;11175922;26;879;-71
2024/04/25 16:56:57;;;;;;;;;;;;;;;18.01;42.20;98448.72;11175171;26;868;-71
2024/04/25 17:01:53;;;;;;;;;;;;;;;18.02;42.63;98445.13;11175106;26;1232;-71
2024/04/25 17:06:52;;;;;;;;;;;;;;;18.01;42.31;98446.91;11175580;26;1836;-70
2024/04/25 17:11:48;;;;;;;;;;;;;;;18.00;42.21;98439.97;11176125;26;807;-71
2024/04/25 17:16:44;;;;;;;;;;;;;;;18.00;41.98;98439.97;11175342;26;791;-71
2024/04/25 17:21:41;;;;;;;;;;;;;;;18.01;42.43;98444.28;11175798;26;835;-71
2024/04/25 17:26:40;;;;;;;;;;;;;;;18.00;42.48;98439.09;11174925;26;1821;-71
2024/04/25 17:31:36;;;;;;;;;;;;;;;18.00;42.48;98439.97;11175470;26;822;-71
2024/04/25 17:36:32;;;;;;;;;;;;;;;18.01;42.09;98435.53;11174706;26;1000;-70
2024/04/25 17:41:28;;;;;;;;;;;;;;;18.01;42.09;98443.44;11174434;26;832;-71
2024/04/25 17:46:24;;;;;;;;;;;;;;;18.00;42.10;98444.38;11174253;26;1833;-71
2024/04/25 17:51:20;;;;;;;;;;;;;;;18.01;42.44;98451.34;11174229;26;883;-71
2024/04/25 17:56:16;;;;;;;;;;;;;;;18.00;42.35;98453.16;11173914;26;847;-70
2024/04/25 18:01:12;;;;;;;;;;;;;;;17.99;42.30;98454.06;11173487;26;1038;-71
2024/04/25 18:06:08;;;;;;;;;;;;;;;18.00;42.21;98450.50;11173507;26;1844;-71
2024/04/25 18:11:04;;;;;;;;;;;;;;;18.00;42.14;98452.28;11174326;26;799;-71
2024/04/25 18:16:00;;;;;;;;;;;;;;;17.99;42.16;98459.34;11171975;26;998;-71
2024/04/25 18:20:56;;;;;;;;;;;;;;;17.99;42.35;98459.34;11173221;26;898;-71
2024/04/25 18:25:52;;;;;;;;;;;;;;;17.99;42.21;98451.44;11172844;26;1832;-71
2024/04/25 18:30:48;;;;;;;;;;;;;;;17.99;42.28;98461.97;11172815;26;1042;-71
2024/04/25 18:35:44;;;;;;;;;;;;;;;18.00;42.41;98463.69;11172648;26;866;-71
2024/04/25 18:40:39;;;;;;;;;;;;;;;18.00;42.35;98461.06;11173111;26;918;-70
2024/04/25 18:45:35;;;;;;;;;;;;;;;18.00;42.54;98463.69;11172170;26;1852;-71
2024/04/25 18:50:31;;;;;;;;;;;;;;;18.00;42.62;98462.81;11172737;26;1667;-71
2024/04/25 18:55:27;;;;;;;;;;;;;;;18.00;42.47;98461.06;11171975;26;837;-71
2024/04/25 19:00:23;;;;;;;;;;;;;;;18.01;42.55;98456.63;11171388;26;1274;-70
2024/04/25 19:05:19;;;;;;;;;;;;;;;18.01;42.19;98456.63;11171531;26;1829;-71
2024/04/25 19:10:15;;;;;;;;;;;;;;;18.02;42.52;98456.50;11170778;26;871;-71
2024/04/25 19:15:11;;;;;;;;;;;;;;;18.02;42.31;98453.88;11171354;26;941;-71
2024/04/25 19:20:08;;;;;;;;;;;;;;;18.02;42.15;98453.88;11170417;26;809;-71
2024/04/25 19:25:04;;;;;;;;;;;;;;;18.02;42.54;98451.22;11172199;26;1827;-71
2024/04/25 19:30:00;;;;;;;;;;;;;;;18.03;42.74;98449.47;11178509;26;918;-71
2024/04/25 19:34:56;;;;;;;;;;;;;;;18.04;42.39;98451.97;11177681;26;817;-71
2024/04/25 19:39:54;;;;;;;;;;;;;;;18.03;42.38;98449.47;11177645;26;853;-71
2024/04/25 19:44:50;;;;;;;;;;;;;;;18.02;42.47;98453.88;11177293;26;1829;-71
2024/04/25 19:49:46;;;;;;;;;;;;;;;18.02;42.66;98448.59;11177189;26;848;-71
2024/04/25 19:54:41;;;;;;;;;;;;;;;18.01;42.77;98452.19;11176993;26;869;-71
2024/04/25 19:59:43;;;;;;;;;;;;;;;18.01;42.19;98452.19;11177651;26;1083;-71
2024/04/25 20:04:39;;;;;;;;;;;;;;;17.99;42.11;98459.34;11177489;26;1829;-71
2024/04/25 20:09:35;;;;;;;;;;;;;;;17.98;42.12;98460.31;11178000;26;813;-71
2024/04/25 20:14:31;;;;;;;;;;;;;;;17.99;42.14;98458.50;11177547;26;922;-71
2024/04/25 20:24:42;;;;;;;;;;;;;;;17.97;42.13;98458.59;11177395;26;1849;-71
2024/04/25 20:29:38;;;;;;;;;;;;;;;17.96;42.06;98464.81;11177336;26;918;-71
2024/04/25 20:34:34;;;;;;;;;;;;;;;17.96;42.14;98467.47;11176531;26;813;-71
2024/04/25 20:39:30;;;;;;;;;;;;;;;17.95;42.02;98473.69;11176068;26;903;-71
2024/04/25 20:44:25;;;;;;;;;;;;;;;17.95;41.99;98465.78;11176219;26;1818;-71
2024/04/25 20:49:21;;;;;;;;;;;;;;;17.93;42.14;98462.38;11176091;26;911;-71
2024/04/25 20:54:17;;;;;;;;;;;;;;;17.91;42.38;98456.34;11176731;26;901;-71
2024/04/25 20:59:13;;;;;;;;;;;;;;;17.90;42.00;98457.31;11175536;26;1199;-71
2024/04/25 21:04:10;;;;;;;;;;;;;;;17.89;42.09;98456.47;11175210;26;840;-71
2024/04/25 21:09:06;;;;;;;;;;;;;;;17.87;42.24;98439.91;11174926;26;904;-71
2024/04/25 21:14:02;;;;;;;;;;;;;;;17.86;42.14;98437.34;11174650;26;850;-71
2024/04/25 21:18:58;;;;;;;;;;;;;;;17.85;42.31;98433.03;11175354;26;1547;-71
2024/04/25 21:23:54;;;;;;;;;;;;;;;17.84;42.15;98428.69;11174439;26;965;-71
2024/04/25 21:28:49;;;;;;;;;;;;;;;17.81;41.77;98424.47;11174996;26;1841;-71
2024/04/25 21:33:48;;;;;;;;;;;;;;;17.81;42.39;98423.63;11174806;26;1016;-71
2024/04/25 21:38:43;;;;;;;;;;;;;;;17.79;42.17;98412.28;11174038;26;855;-71
2024/04/25 21:43:41;;;;;;;;;;;;;;;17.78;42.31;98410.63;11173923;26;874;-71
2024/04/25 21:48:37;;;;;;;;;;;;;;;17.77;42.00;98411.56;11172363;26;1849;-71
2024/04/25 21:53:33;;;;;;;;;;;;;;;17.75;42.05;98412.50;11174265;26;767;-71
2024/04/25 21:58:28;;;;;;;;;;;;;;;17.74;42.10;98415.25;11173218;26;998;-71
2024/04/25 22:03:26;;;;;;;;;;;;;;;17.72;42.45;98410.06;11174354;26;1098;-71
2024/04/25 22:08:21;;;;;;;;;;;;;;;17.70;41.93;98411.94;11173637;26;1833;-71
2024/04/25 22:13:17;;;;;;;;;;;;;;;17.70;42.29;98401.41;11174687;26;870;-71
2024/04/25 22:18:13;;;;;;;;;;;;;;;17.71;42.09;98403.13;11174450;26;969;-70
2024/04/25 22:23:09;;;;;;;;;;;;;;;17.69;41.99;98401.53;11174486;26;884;-70
2024/04/25 22:28:05;;;;;;;;;;;;;;;17.67;42.28;98409.50;11174103;26;1822;-70
2024/04/25 22:33:01;;;;;;;;;;;;;;;17.66;42.50;98401.72;11174006;26;895;-70
2024/04/25 22:37:57;;;;;;;;;;;;;;;17.65;41.92;98411.41;11173734;26;898;-70
2024/04/25 22:42:52;;;;;;;;;;;;;;;17.64;41.95;98399.19;11173703;26;873;-71
2024/04/25 22:47:48;;;;;;;;;;;;;;;17.64;42.24;98406.25;11173453;26;1852;-71
2024/04/25 22:52:44;;;;;;;;;;;;;;;17.62;41.84;98395.78;11172634;26;913;-70
2024/04/25 22:57:40;;;;;;;;;;;;;;;17.61;42.09;98403.81;11172430;26;910;-70
2024/04/25 23:02:36;;;;;;;;;;;;;;;17.61;42.26;98396.75;11177389;26;1099;-71
2024/04/25 23:07:32;;;;;;;;;;;;;;;17.60;42.09;98400.31;11178933;26;1942;-70
2024/04/25 23:12:28;;;;;;;;;;;;;;;17.59;42.38;98390.72;11178854;26;847;-71
2024/04/25 23:17:23;;;;;;;;;;;;;;;17.58;42.26;98399.56;11178697;26;981;-71
2024/04/25 23:22:19;;;;;;;;;;;;;;;17.58;42.29;98401.34;11178517;26;809;-71
2024/04/25 23:27:15;;;;;;;;;;;;;;;17.57;41.88;98403.13;11178270;26;1822;-70
2024/04/25 23:32:11;;;;;;;;;;;;;;;17.56;42.14;98387.44;11178276;26;763;-70
2024/04/25 23:37:07;;;;;;;;;;;;;;;17.55;41.62;98391.00;11178817;26;843;-71
2024/04/25 23:42:03;;;;;;;;;;;;;;;17.53;41.99;98385.84;11178599;26;1039;-71
2024/04/25 23:46:59;;;;;;;;;;;;;;;17.52;41.83;98392.03;11178468;26;1823;-71
2024/04/25 23:51:55;;;;;;;;;;;;;;;17.51;41.77;98382.47;11177734;26;818;-70
2024/04/25 23:56:50;;;;;;;;;;;;;;;17.51;41.68;98382.47;11177446;26;930;-70
